San Juan, PR

1:45 AM AST on April 18, 2015 (GMT -0400)
Luis Munoz Marin International | | Change Station
CLOSE
Current Station
Airport
Location: San Juan,
Elevation: 7 ft
Nearby Weather Stations

Elev 7 ft 18.43 °N, 66.01 °W | Updated 49 minutes ago

Scattered Clouds
Scattered Clouds
76 °F
Feels Like 76 °F
N
5
Wind Variable Wind from ESE

Today
High -- | Low -- °F
--% Chance of Precip.
Yesterday
High -- | Low -- °F
Precip. -- in
6:05 AM 6:41 PM
Waning Crescent, 0% visible
Pressure 30.05 in
Visibility 10.0 miles
Clouds Few 2200 ft
Scattered Clouds 7000 ft
Dew Point 73 °F
Humidity 91%
Rainfall 0.00 in
Snow Depth Not available.
UV 0 out of 12
Pollen Not available.
Air Quality Not available.
Flu Activity Sporadic
METAR TJSJ 180456Z 11004KT 10SM FEW022 SCT070 24/23 A3005 RMK AO2 SLP175 T02440228 $

More Conditions Fewer Conditions

Pressure 30.05 in
Visibility 10.0 miles
Clouds Few 2200 ft
Scattered Clouds 7000 ft
Dew Point 73 °F
Humidity 91%
Rainfall 0.00 in
Snow Depth Not available.
UV 0 out of 12
Pollen Not available.
Air Quality Not available.
Flu Activity Sporadic
METAR TJSJ 180456Z 11004KT 10SM FEW022 SCT070 24/23 A3005 RMK AO2 SLP175 T02440228 $

More Conditions Fewer Conditions

10-Day Weather Forecast

Almanac

Astronomy

Apr. 18, 2015 Rise Set
Actual Time
Civil Twilight
Nautical Twilight
Astronomical Twilight
Moon
Length of Visible Light
Length of Day
Tomorrow will be .
, % of the Moon is Illuminated

Today's Extremes

State Highs State Lows

Community

WunderPhotos

Upload Photos

1,814,340 photos uploaded!

WunderBlogs® & News

Nearby

Air Quality

  Air Quality AQ Index Pollutant
Not available.

Snow Depth

Station Depth Elevation

Earthquake Activity

City Distance Mag. Time & Date
Minimum magnitude displayed is 2.5.

Coastal Water Temperatures

Place Temperature

Stations

Nearby Weather Stations

Station Location Temp. Windchill Dew Point Humidity Wind Precip. Elev Updated Type